Αρχική σελίδα
METAR-TAF:

METAR-TAF

Αεροδρόμια :

Βαρσοβία, Πολωνία

γεωγραφικό πλάτος: 52-10N, γεωγραφικό μήκος: 020-58E, υψόμετρο: 106 μ

Παρών καιρός

Η αναφορά έγινε 33 λεπτά πριν, στις 02:00 UTC
Άνεμος 5 kt από ΝA
Θερμοκρασία 11°C
Υγρασία 87%
Πίεση 1013 hPa
Ορατότητα 10 χλμ και άνω
Δεν υπάρχουν νέφη με βάση κάτω από τα 1500 μ. και δεν υπάρχουν νέφη σωρειτομελανίτες.

METAR: EPWA 260200Z 13005KT CAVOK 11/09 Q1013 NOSIG

Χρόνος: 04:33 (02:33 UTC)

Πρόγνωση Καιρού

Η αναφορά έγινε 3 ώρες και 3 λεπτά πριν, στις 23:30 UTC
Η πρόγνωση ισχύει από τις 26 στις 00 UTC έως τις 26 στις 24 UTC
Άνεμος 5 kt από Α/NA
Ορατότητα 10 χλμ και άνω
Δεν υπάρχουν νέφη με βάση κάτω από τα 1500 μ. και δεν υπάρχουν νέφη σωρειτομελανίτες.

TAF: EPWA 252330Z 2600/2624 12005KT CAVOK

Μετεωρολογικές αναφορές και προγνώσεις για περισσότερα από 4000 αεροδρόμια (δελτία METAR και TAF).

Οι διαθέσιμοι σταθμοί απεικονίζονται στο χάρτη με κίτρινες και κόκκινες κουκκίδες.

Μετακινήστε το ποντίκι πάνω από τις κουκκίδες για να δείτε το όνομα του σταθμού.

Στη συνέχεια, κάντε κλικ για να δείτε τις μετεωρολογικές αναφορές και τις προγνώσεις καιρού.

Για να αλλάξετε το χάρτη: κάντε κλικ στα πράσινα κουμπιά με τον μαύρο σταυρό για να ζουμάρετε, στο πράσινο κουμπί με την παύλα για να αφαιρέσετε το ζουμ ή στα πράσινα βέλη για να αντιπαραβάλλετε χάρτες.


METAR-TAF: